createdAt,value
2018-03-16T00:00:07.933Z,948.1
2018-03-16T00:01:09.436Z,948.0
2018-03-16T00:02:10.902Z,948.0
2018-03-16T00:03:12.315Z,948.1
2018-03-16T00:04:13.793Z,948.1
2018-03-16T00:05:15.297Z,948.1
2018-03-16T00:06:16.813Z,948.0
2018-03-16T00:07:18.272Z,948.1
2018-03-16T00:08:19.752Z,948.1
2018-03-16T00:09:21.194Z,948.1
2018-03-16T00:10:22.669Z,948.1
2018-03-16T00:11:24.152Z,948.1
2018-03-16T00:12:25.620Z,948.0
2018-03-16T00:13:27.174Z,948.0
2018-03-16T00:14:28.670Z,947.9
2018-03-16T00:15:30.133Z,948.0
2018-03-16T00:16:31.621Z,948.0
2018-03-16T00:17:33.120Z,948.0
2018-03-16T00:18:34.593Z,947.9
2018-03-16T00:19:36.084Z,948.0
2018-03-16T00:20:37.599Z,948.0
2018-03-16T00:21:39.083Z,948.1
2018-03-16T00:22:40.582Z,948.0
2018-03-16T00:23:42.047Z,948.0
2018-03-16T00:24:43.575Z,947.9
2018-03-16T00:25:45.025Z,947.8
2018-03-16T00:26:46.495Z,947.8
2018-03-16T00:27:48.006Z,947.9
2018-03-16T00:28:49.515Z,948.0
2018-03-16T00:29:50.919Z,948.0
2018-03-16T00:30:52.361Z,948.0
2018-03-16T00:31:53.811Z,948.0
2018-03-16T00:32:55.223Z,948.0
2018-03-16T00:33:56.666Z,948.0
2018-03-16T00:34:58.162Z,948.1
2018-03-16T00:35:59.655Z,948.1
2018-03-16T00:37:01.184Z,948.1
2018-03-16T00:38:02.678Z,948.1
2018-03-16T00:39:04.131Z,948.0
2018-03-16T00:40:05.605Z,948.1
2018-03-16T00:41:07.120Z,948.1
2018-03-16T00:42:08.583Z,948.1
2018-03-16T00:43:10.069Z,948.1
2018-03-16T00:44:11.561Z,948.1
2018-03-16T00:45:13.029Z,948.1
2018-03-16T00:46:15.410Z,948.1
2018-03-16T00:47:16.807Z,948.1
2018-03-16T00:48:18.209Z,948.1
2018-03-16T00:49:19.687Z,948.0
2018-03-16T00:50:21.116Z,948.1
2018-03-16T00:51:22.518Z,948.0
2018-03-16T00:52:23.912Z,948.0
2018-03-16T00:53:25.303Z,948.0
2018-03-16T00:54:26.719Z,948.0
2018-03-16T00:55:28.114Z,948.0
2018-03-16T00:56:29.500Z,948.1
2018-03-16T00:57:30.902Z,948.1
2018-03-16T00:58:32.287Z,948.1
2018-03-16T00:59:33.678Z,948.1
2018-03-16T01:00:35.135Z,948.1
2018-03-16T01:01:36.522Z,948.1
2018-03-16T01:02:37.913Z,948.1
2018-03-16T01:03:39.307Z,948.0
2018-03-16T01:04:40.706Z,948.1
2018-03-16T01:05:42.104Z,948.1
2018-03-16T01:06:43.495Z,948.1
2018-03-16T01:07:44.895Z,948.1
2018-03-16T01:08:46.294Z,948.1
2018-03-16T01:09:47.716Z,948.1
2018-03-16T01:10:49.107Z,948.2
2018-03-16T01:11:50.520Z,948.1
2018-03-16T01:12:51.917Z,948.1
2018-03-16T01:13:53.334Z,948.1
2018-03-16T01:14:54.733Z,948.1
2018-03-16T01:15:56.144Z,948.1
2018-03-16T01:16:57.559Z,948.1
2018-03-16T01:17:58.946Z,948.1
2018-03-16T01:19:00.340Z,948.1
2018-03-16T01:20:01.747Z,948.0
2018-03-16T01:21:03.243Z,948.1
2018-03-16T01:22:04.624Z,948.1
2018-03-16T01:23:06.019Z,948.1
2018-03-16T01:24:07.450Z,948.1
2018-03-16T01:25:08.867Z,948.1
2018-03-16T01:26:10.274Z,948.1
2018-03-16T01:27:11.670Z,948.1
2018-03-16T01:28:13.075Z,948.1
2018-03-16T01:29:14.546Z,948.1
2018-03-16T01:30:15.941Z,948.1
2018-03-16T01:31:17.332Z,948.1
2018-03-16T01:32:18.727Z,948.1
2018-03-16T01:33:20.139Z,948.1
2018-03-16T01:34:21.548Z,948.1
2018-03-16T01:35:22.945Z,948.1
2018-03-16T01:36:24.330Z,948.1
2018-03-16T01:37:25.737Z,948.1
2018-03-16T01:38:27.183Z,948.1
2018-03-16T01:39:28.592Z,948.1
2018-03-16T01:40:29.988Z,948.1
2018-03-16T01:41:31.485Z,948.1
2018-03-16T01:42:32.871Z,948.1
2018-03-16T01:43:34.259Z,948.1
2018-03-16T01:44:35.682Z,948.1
2018-03-16T01:45:37.070Z,948.1
2018-03-16T01:46:38.466Z,948.2
2018-03-16T01:47:39.875Z,948.2
2018-03-16T01:48:41.258Z,948.2
2018-03-16T01:49:42.678Z,948.2
2018-03-16T01:50:44.076Z,948.1
2018-03-16T01:51:45.476Z,948.1
2018-03-16T01:52:46.916Z,948.1
2018-03-16T01:53:48.318Z,948.1
2018-03-16T01:54:49.716Z,948.1
2018-03-16T01:55:51.133Z,948.1
2018-03-16T01:56:52.534Z,948.1
2018-03-16T01:57:53.921Z,948.1
2018-03-16T01:58:55.327Z,948.2
2018-03-16T01:59:56.731Z,948.1
2018-03-16T02:00:58.127Z,948.2
2018-03-16T02:01:59.556Z,948.2
2018-03-16T02:03:00.961Z,948.2
2018-03-16T02:04:02.349Z,948.2
2018-03-16T02:05:03.740Z,948.2
2018-03-16T02:06:05.134Z,948.2
2018-03-16T02:07:06.523Z,948.2
2018-03-16T02:08:07.914Z,948.2
2018-03-16T02:09:09.322Z,948.3
2018-03-16T02:10:10.750Z,948.2
2018-03-16T02:11:12.160Z,948.2
2018-03-16T02:12:13.547Z,948.2
2018-03-16T02:13:15.017Z,948.2
2018-03-16T02:14:16.414Z,948.2
2018-03-16T02:15:17.831Z,948.2
2018-03-16T02:16:19.252Z,948.2
2018-03-16T02:17:20.644Z,948.2
2018-03-16T02:18:22.043Z,948.2
2018-03-16T02:19:23.435Z,948.2
2018-03-16T02:20:24.829Z,948.2
2018-03-16T02:21:26.222Z,948.2
2018-03-16T02:22:27.630Z,948.1
2018-03-16T02:23:29.020Z,948.1
2018-03-16T02:24:30.420Z,948.1
2018-03-16T02:25:31.807Z,948.1
2018-03-16T02:26:33.217Z,948.1
2018-03-16T02:27:34.614Z,948.1
2018-03-16T02:28:36.016Z,948.1
2018-03-16T02:29:37.435Z,948.2
2018-03-16T02:30:38.833Z,948.1
2018-03-16T02:31:40.256Z,948.1
2018-03-16T02:32:41.647Z,948.1
2018-03-16T02:33:43.108Z,948.2
2018-03-16T02:34:44.536Z,948.2
2018-03-16T02:35:45.935Z,948.2
2018-03-16T02:36:47.322Z,948.2
2018-03-16T02:37:48.725Z,948.2
2018-03-16T02:38:50.134Z,948.3
2018-03-16T02:39:51.524Z,948.2
2018-03-16T02:40:52.911Z,948.2
2018-03-16T02:41:54.297Z,948.2
2018-03-16T02:42:55.705Z,948.2
2018-03-16T02:43:57.098Z,948.3
2018-03-16T02:44:58.585Z,948.3
2018-03-16T02:45:59.983Z,948.2
2018-03-16T02:47:01.407Z,948.3
2018-03-16T02:48:02.827Z,948.3
2018-03-16T02:49:04.214Z,948.3
2018-03-16T02:50:05.613Z,948.4
2018-03-16T02:51:07.009Z,948.3
2018-03-16T02:52:08.412Z,948.3
2018-03-16T02:53:09.809Z,948.4
2018-03-16T02:54:11.202Z,948.4
2018-03-16T02:55:12.591Z,948.3
2018-03-16T02:56:14.076Z,948.4
2018-03-16T02:57:15.469Z,948.3
2018-03-16T02:58:16.859Z,948.3
2018-03-16T02:59:18.278Z,948.4
2018-03-16T03:00:19.685Z,948.3
2018-03-16T03:01:21.078Z,948.4
2018-03-16T03:02:22.475Z,948.4
2018-03-16T03:03:23.870Z,948.4
2018-03-16T03:04:25.290Z,948.4
2018-03-16T03:05:26.761Z,948.4
2018-03-16T03:06:28.147Z,948.4
2018-03-16T03:07:29.541Z,948.3
2018-03-16T03:08:30.959Z,948.4
2018-03-16T03:09:32.379Z,948.4
2018-03-16T03:10:33.785Z,948.4
2018-03-16T03:11:35.175Z,948.4
2018-03-16T03:12:36.572Z,948.4
2018-03-16T03:13:37.980Z,948.4
2018-03-16T03:14:39.398Z,948.4
2018-03-16T03:15:40.793Z,948.4
2018-03-16T03:16:42.296Z,948.4
2018-03-16T03:17:43.700Z,948.4
2018-03-16T03:18:45.110Z,948.4
2018-03-16T03:19:46.513Z,948.4
2018-03-16T03:20:47.905Z,948.4
2018-03-16T03:21:49.310Z,948.4
2018-03-16T03:22:50.692Z,948.4
2018-03-16T03:23:52.092Z,948.4
2018-03-16T03:24:53.490Z,948.4
2018-03-16T03:25:54.924Z,948.4
2018-03-16T03:26:56.333Z,948.3
2018-03-16T03:27:57.726Z,948.4
2018-03-16T03:28:59.123Z,948.4
2018-03-16T03:30:00.526Z,948.4
2018-03-16T03:31:01.957Z,948.3
2018-03-16T03:32:03.457Z,948.3
2018-03-16T03:33:04.900Z,948.3
2018-03-16T03:34:06.456Z,948.4
2018-03-16T03:35:07.888Z,948.3
2018-03-16T03:36:09.371Z,948.4
2018-03-16T03:37:10.911Z,948.4
2018-03-16T03:38:12.442Z,948.4
2018-03-16T03:39:14.011Z,948.3
2018-03-16T03:40:15.478Z,948.4
2018-03-16T03:41:16.970Z,948.4
2018-03-16T03:42:18.434Z,948.4
2018-03-16T03:43:19.909Z,948.4
2018-03-16T03:44:21.402Z,948.3
2018-03-16T03:45:22.841Z,948.3
2018-03-16T03:46:24.303Z,948.3
2018-03-16T03:47:25.747Z,948.3
2018-03-16T03:48:27.205Z,948.3
2018-03-16T03:49:28.723Z,948.3
2018-03-16T03:50:30.328Z,948.3
2018-03-16T03:51:31.801Z,948.3
2018-03-16T03:52:33.263Z,948.3
2018-03-16T03:53:34.787Z,948.3
2018-03-16T03:54:36.303Z,948.3
2018-03-16T03:55:37.825Z,948.4
2018-03-16T03:56:39.398Z,948.3
2018-03-16T03:57:40.882Z,948.3
2018-03-16T03:58:42.372Z,948.3
2018-03-16T03:59:43.828Z,948.3
2018-03-16T04:00:45.354Z,948.4
2018-03-16T04:01:46.899Z,948.4
2018-03-16T04:02:48.385Z,948.3
2018-03-16T04:03:49.846Z,948.4
2018-03-16T04:04:51.282Z,948.4
2018-03-16T04:05:52.738Z,948.4
2018-03-16T04:06:54.167Z,948.3
2018-03-16T04:07:55.634Z,948.3
2018-03-16T04:08:57.064Z,948.4
2018-03-16T04:09:58.528Z,948.4
2018-03-16T04:10:59.974Z,948.4
2018-03-16T04:12:01.506Z,948.3
2018-03-16T04:13:03.068Z,948.4
2018-03-16T04:14:04.542Z,948.3
2018-03-16T04:15:06.007Z,948.3
2018-03-16T04:16:07.485Z,948.3
2018-03-16T04:17:08.930Z,948.3
2018-03-16T04:18:10.368Z,948.4
2018-03-16T04:19:11.826Z,948.4
2018-03-16T04:20:13.294Z,948.4
2018-03-16T04:21:14.806Z,948.4
2018-03-16T04:22:16.294Z,948.4
2018-03-16T04:23:17.780Z,948.4
2018-03-16T04:24:19.282Z,948.4
2018-03-16T04:25:20.772Z,948.3
2018-03-16T04:26:22.244Z,948.4
2018-03-16T04:27:23.706Z,948.4
2018-03-16T04:28:25.195Z,948.4
2018-03-16T04:29:26.653Z,948.4
2018-03-16T04:30:28.147Z,948.4
2018-03-16T04:31:29.627Z,948.4
2018-03-16T04:32:31.146Z,948.4
2018-03-16T04:33:32.662Z,948.4
2018-03-16T04:34:34.185Z,948.4
2018-03-16T04:35:35.716Z,948.4
2018-03-16T04:36:37.139Z,948.5
2018-03-16T04:37:38.602Z,948.5
2018-03-16T04:38:39.996Z,948.5
2018-03-16T04:39:41.392Z,948.5
2018-03-16T04:40:42.787Z,948.6
2018-03-16T04:41:44.191Z,948.5
2018-03-16T04:42:45.580Z,948.5
2018-03-16T04:44:26.498Z,948.5
2018-03-16T04:45:28.018Z,948.5
2018-03-16T04:46:29.407Z,948.5
2018-03-16T04:47:30.823Z,948.5
2018-03-16T04:48:32.208Z,948.5
2018-03-16T04:49:33.608Z,948.6
2018-03-16T04:50:35.003Z,948.5
2018-03-16T04:51:36.397Z,948.5
2018-03-16T04:52:37.796Z,948.5
2018-03-16T04:53:39.191Z,948.5
2018-03-16T04:54:40.584Z,948.5
2018-03-16T04:55:41.978Z,948.5
2018-03-16T04:56:43.395Z,948.5
2018-03-16T04:57:44.813Z,948.5
2018-03-16T04:58:46.205Z,948.5
2018-03-16T04:59:47.596Z,948.6
2018-03-16T05:00:48.988Z,948.6
2018-03-16T05:01:50.376Z,948.6
2018-03-16T05:02:51.769Z,948.5
2018-03-16T05:03:53.178Z,948.5
2018-03-16T05:04:54.570Z,948.5
2018-03-16T05:05:56.050Z,948.5
2018-03-16T05:06:57.462Z,948.5
2018-03-16T05:07:58.871Z,948.5
2018-03-16T05:09:00.262Z,948.6
2018-03-16T05:10:01.654Z,948.6
2018-03-16T05:11:03.066Z,948.6
2018-03-16T05:12:04.492Z,948.5
2018-03-16T05:13:05.896Z,948.6
2018-03-16T05:14:07.293Z,948.6
2018-03-16T05:15:08.675Z,948.6
2018-03-16T05:16:10.088Z,948.6
2018-03-16T05:17:11.576Z,948.6
2018-03-16T05:18:12.974Z,948.6
2018-03-16T05:19:14.376Z,948.5
2018-03-16T05:20:15.765Z,948.5
2018-03-16T05:21:17.161Z,948.5
2018-03-16T05:22:18.548Z,948.5
2018-03-16T05:23:19.942Z,948.6
2018-03-16T05:24:21.325Z,948.6
2018-03-16T05:25:22.719Z,948.5
2018-03-16T05:26:24.173Z,948.5
2018-03-16T05:27:25.565Z,948.5
2018-03-16T05:28:26.961Z,948.5
2018-03-16T05:29:28.364Z,948.5
2018-03-16T05:30:29.760Z,948.5
2018-03-16T05:31:31.161Z,948.5
2018-03-16T05:32:32.554Z,948.5
2018-03-16T05:33:33.950Z,948.6
2018-03-16T05:34:35.355Z,948.6
2018-03-16T05:35:36.753Z,948.5
2018-03-16T05:36:38.161Z,948.6
2018-03-16T05:37:39.636Z,948.6
2018-03-16T05:38:41.049Z,948.7
2018-03-16T05:39:42.465Z,948.6
2018-03-16T05:40:43.941Z,948.6
2018-03-16T05:41:45.306Z,948.7
2018-03-16T05:42:46.719Z,948.6
2018-03-16T05:43:48.112Z,948.7
2018-03-16T05:44:49.516Z,948.7
2018-03-16T05:45:50.927Z,948.7
2018-03-16T05:46:52.323Z,948.8
2018-03-16T05:47:53.725Z,948.8
2018-03-16T05:48:55.174Z,948.8
2018-03-16T05:49:56.562Z,948.7
2018-03-16T05:50:57.955Z,948.8
2018-03-16T05:51:59.338Z,948.9
2018-03-16T05:53:00.740Z,948.8
2018-03-16T05:54:02.139Z,948.8
2018-03-16T05:55:03.543Z,948.9
2018-03-16T05:56:04.937Z,948.9
2018-03-16T05:57:06.340Z,948.9
2018-03-16T05:58:07.902Z,948.9
2018-03-16T05:59:09.297Z,948.9
2018-03-16T06:00:10.705Z,948.9
2018-03-16T06:01:12.090Z,948.9
2018-03-16T06:02:13.486Z,948.9
2018-03-16T06:03:14.884Z,948.9
2018-03-16T06:04:16.277Z,948.9
2018-03-16T06:05:17.668Z,948.9
2018-03-16T06:06:19.060Z,948.9
2018-03-16T06:07:20.447Z,948.9
2018-03-16T06:08:21.859Z,948.9
2018-03-16T06:09:23.305Z,948.9
2018-03-16T06:10:24.700Z,948.9
2018-03-16T06:11:26.095Z,948.9
2018-03-16T06:12:27.491Z,948.9
2018-03-16T06:13:28.885Z,948.9
2018-03-16T06:14:30.283Z,948.9
2018-03-16T06:15:31.691Z,948.9
2018-03-16T06:16:33.105Z,948.9
2018-03-16T06:17:34.499Z,949.0
2018-03-16T06:18:35.990Z,949.0
2018-03-16T06:19:37.391Z,949.0
2018-03-16T06:20:38.783Z,949.0
2018-03-16T06:21:40.199Z,949.0
2018-03-16T06:22:41.598Z,949.0
2018-03-16T06:23:43.007Z,949.0
2018-03-16T06:24:44.411Z,949.0
2018-03-16T06:25:45.794Z,949.0
2018-03-16T06:26:47.206Z,949.0
2018-03-16T06:27:48.664Z,949.0
2018-03-16T06:28:50.046Z,949.0
2018-03-16T06:29:51.501Z,949.0
2018-03-16T06:30:52.901Z,949.0
2018-03-16T06:31:54.308Z,949.0
2018-03-16T06:32:55.693Z,949.0
2018-03-16T06:33:57.191Z,949.0
2018-03-16T06:34:58.541Z,949.0
2018-03-16T06:35:59.937Z,949.0
2018-03-16T06:37:01.353Z,949.0
2018-03-16T06:38:02.741Z,949.0
2018-03-16T06:39:04.150Z,949.1
2018-03-16T06:40:07.366Z,949.0
2018-03-16T06:41:08.834Z,949.0
2018-03-16T06:42:10.234Z,949.0
2018-03-16T06:43:11.728Z,949.1
2018-03-16T06:44:13.121Z,949.1
2018-03-16T06:45:14.520Z,949.1
2018-03-16T06:46:15.906Z,949.1
2018-03-16T06:47:17.298Z,949.1
2018-03-16T06:48:18.696Z,949.1
2018-03-16T06:49:20.092Z,949.1
2018-03-16T06:50:21.488Z,949.2
2018-03-16T06:51:22.878Z,949.2
2018-03-16T06:52:24.264Z,949.2
2018-03-16T06:53:25.665Z,949.2
2018-03-16T06:54:27.060Z,949.2
2018-03-16T06:55:28.452Z,949.2
2018-03-16T06:56:29.865Z,949.3
2018-03-16T06:57:31.254Z,949.3
2018-03-16T06:58:32.651Z,949.3
2018-03-16T06:59:34.079Z,949.2
2018-03-16T07:00:35.502Z,949.2
2018-03-16T07:01:36.902Z,949.3
2018-03-16T07:02:38.306Z,949.2
2018-03-16T07:03:39.709Z,949.2
2018-03-16T07:04:41.137Z,949.3
2018-03-16T07:05:42.529Z,949.4
2018-03-16T07:06:43.944Z,949.4
2018-03-16T07:07:45.348Z,949.4
2018-03-16T07:08:46.742Z,949.4
2018-03-16T07:09:48.144Z,949.4
2018-03-16T07:10:49.551Z,949.5
2018-03-16T07:11:50.966Z,949.4
2018-03-16T07:12:52.365Z,949.5
2018-03-16T07:13:53.760Z,949.5
2018-03-16T07:14:55.250Z,949.5
2018-03-16T07:15:56.670Z,949.5
2018-03-16T07:16:58.069Z,949.5
2018-03-16T07:17:59.469Z,949.6
2018-03-16T07:19:00.861Z,949.5
2018-03-16T07:20:02.254Z,949.5
2018-03-16T07:21:03.673Z,949.5
2018-03-16T07:22:05.075Z,949.5
2018-03-16T07:23:06.487Z,949.6
2018-03-16T07:24:07.895Z,949.7
2018-03-16T07:25:09.305Z,949.6
2018-03-16T07:26:10.703Z,949.7
2018-03-16T07:27:12.103Z,949.6
2018-03-16T07:28:13.589Z,949.7
2018-03-16T07:29:15.003Z,949.8
2018-03-16T07:30:16.416Z,949.7
2018-03-16T07:31:17.904Z,949.8
2018-03-16T07:32:19.307Z,949.9
2018-03-16T07:33:20.703Z,950.0
2018-03-16T07:34:22.102Z,949.9
2018-03-16T07:35:23.574Z,949.9
2018-03-16T07:36:25.118Z,949.9
2018-03-16T07:37:26.531Z,949.9
2018-03-16T07:38:27.929Z,949.9
2018-03-16T07:39:29.434Z,950.0
2018-03-16T07:40:30.931Z,950.0
2018-03-16T07:41:32.335Z,950.0
2018-03-16T07:42:33.744Z,950.1
2018-03-16T07:43:35.127Z,950.1
2018-03-16T07:44:36.524Z,950.1
2018-03-16T07:45:37.951Z,950.1
2018-03-16T07:46:39.432Z,950.1
2018-03-16T07:47:40.822Z,950.1
2018-03-16T07:48:42.237Z,950.1
2018-03-16T07:49:43.636Z,950.1
2018-03-16T07:50:45.028Z,950.1
2018-03-16T07:51:46.428Z,950.1
2018-03-16T07:52:47.851Z,950.1
2018-03-16T07:53:49.251Z,950.1
2018-03-16T07:54:50.675Z,950.2
2018-03-16T07:55:52.102Z,950.1
2018-03-16T07:56:53.506Z,950.1
2018-03-16T07:57:54.909Z,950.1
2018-03-16T07:58:56.299Z,950.1
2018-03-16T07:59:57.699Z,950.2
2018-03-16T08:00:59.108Z,950.2
2018-03-16T08:02:00.529Z,950.2
2018-03-16T08:03:01.947Z,950.2
2018-03-16T08:04:03.357Z,950.1
2018-03-16T08:05:04.773Z,950.1
2018-03-16T08:06:06.212Z,950.2
2018-03-16T08:07:07.698Z,950.2
2018-03-16T08:08:09.123Z,950.2
2018-03-16T08:09:10.527Z,950.2
2018-03-16T08:10:11.931Z,950.2
2018-03-16T08:11:13.324Z,950.2
2018-03-16T08:12:14.801Z,950.2
2018-03-16T08:13:16.152Z,950.2
2018-03-16T08:14:17.635Z,950.2
2018-03-16T08:15:19.154Z,950.2
2018-03-16T08:16:20.779Z,950.2
2018-03-16T08:17:22.226Z,950.2
2018-03-16T08:18:23.713Z,950.2
2018-03-16T08:19:25.131Z,950.2
2018-03-16T08:20:26.518Z,950.2
2018-03-16T08:21:27.920Z,950.1
2018-03-16T08:22:29.321Z,950.2
2018-03-16T08:23:30.727Z,950.2
2018-03-16T08:24:32.141Z,950.2
2018-03-16T08:25:33.558Z,950.3
2018-03-16T08:26:34.955Z,950.3
2018-03-16T08:27:36.441Z,950.3
2018-03-16T08:28:37.834Z,950.3
2018-03-16T08:29:39.290Z,950.4
2018-03-16T08:30:40.763Z,950.3
2018-03-16T08:31:42.424Z,950.2
2018-03-16T08:32:44.660Z,950.4
2018-03-16T08:33:46.086Z,950.3
2018-03-16T08:34:47.555Z,950.4
2018-03-16T08:35:48.953Z,950.3
2018-03-16T08:36:50.351Z,950.4
2018-03-16T08:37:51.787Z,950.4
2018-03-16T08:38:53.231Z,950.4
2018-03-16T08:39:54.656Z,950.4
2018-03-16T08:40:56.055Z,950.4
2018-03-16T08:41:57.468Z,950.5
2018-03-16T08:42:58.987Z,950.4
2018-03-16T08:44:00.404Z,950.5
2018-03-16T08:45:01.834Z,950.4
2018-03-16T08:46:03.304Z,950.4
2018-03-16T08:47:04.676Z,950.4
2018-03-16T08:48:06.079Z,950.4
2018-03-16T08:49:07.481Z,950.5
2018-03-16T08:50:08.900Z,950.4
2018-03-16T08:51:10.369Z,950.5
2018-03-16T08:52:11.750Z,950.4
2018-03-16T08:53:13.174Z,950.5
2018-03-16T08:54:14.564Z,950.5
2018-03-16T08:55:15.964Z,950.5
2018-03-16T08:56:17.365Z,950.5
2018-03-16T08:57:18.806Z,950.6
2018-03-16T08:58:20.267Z,950.6
2018-03-16T08:59:21.677Z,950.6
2018-03-16T09:00:23.128Z,950.6
2018-03-16T09:01:24.528Z,950.7
2018-03-16T09:02:25.942Z,950.7
2018-03-16T09:03:27.424Z,950.7
2018-03-16T09:04:28.859Z,950.8
2018-03-16T09:05:30.305Z,950.8
2018-03-16T09:06:31.723Z,950.8
2018-03-16T09:07:33.118Z,950.8
2018-03-16T09:08:34.515Z,950.8
2018-03-16T09:09:35.935Z,950.8
2018-03-16T09:10:37.384Z,950.7
2018-03-16T09:11:38.798Z,950.7
2018-03-16T09:12:40.279Z,950.8
2018-03-16T09:13:41.718Z,950.9
2018-03-16T09:14:43.190Z,950.9
2018-03-16T09:15:44.678Z,950.8
2018-03-16T09:16:46.098Z,950.8
2018-03-16T09:17:47.514Z,950.9
2018-03-16T09:18:48.919Z,951.0
2018-03-16T09:19:50.393Z,951.0
2018-03-16T09:20:51.884Z,951.0
2018-03-16T09:21:53.280Z,951.0
2018-03-16T09:22:54.722Z,950.9
2018-03-16T09:23:56.168Z,950.9
2018-03-16T09:24:57.585Z,950.9
2018-03-16T09:25:59.046Z,951.0
2018-03-16T09:27:00.476Z,951.1
2018-03-16T09:28:01.877Z,951.0
2018-03-16T09:29:03.304Z,951.0
2018-03-16T09:30:04.711Z,951.1
2018-03-16T09:31:06.118Z,951.1
2018-03-16T09:32:07.517Z,951.0
2018-03-16T09:33:08.909Z,951.0
2018-03-16T09:34:10.351Z,951.0
2018-03-16T09:35:11.760Z,951.0
2018-03-16T09:36:13.172Z,951.0
2018-03-16T09:37:14.577Z,951.1
2018-03-16T09:38:16.052Z,951.1
2018-03-16T09:39:17.484Z,951.1
2018-03-16T09:40:18.917Z,951.1
2018-03-16T09:41:20.314Z,951.1
2018-03-16T09:42:21.720Z,951.2
2018-03-16T09:43:23.124Z,951.1
2018-03-16T09:44:24.543Z,951.1
2018-03-16T09:45:25.955Z,951.1
2018-03-16T09:46:27.397Z,951.1
2018-03-16T09:47:28.825Z,951.2
2018-03-16T09:48:30.307Z,951.1
2018-03-16T09:49:31.814Z,951.1
2018-03-16T09:50:33.243Z,951.1
2018-03-16T09:51:34.685Z,951.1
2018-03-16T09:52:36.109Z,951.1
2018-03-16T09:53:37.588Z,951.1
2018-03-16T09:54:38.997Z,951.1
2018-03-16T09:55:40.401Z,951.1
2018-03-16T09:56:41.814Z,951.1
2018-03-16T09:57:43.242Z,951.1
2018-03-16T09:58:44.683Z,951.2
2018-03-16T09:59:46.105Z,951.2
2018-03-16T10:00:47.549Z,951.3
2018-03-16T10:01:49.000Z,951.2
2018-03-16T10:02:50.400Z,951.2
2018-03-16T10:03:51.830Z,951.3
2018-03-16T10:04:53.314Z,951.2
2018-03-16T10:05:54.779Z,951.2
2018-03-16T10:06:56.213Z,951.3
2018-03-16T10:07:57.669Z,951.3
2018-03-16T10:08:59.275Z,951.2
2018-03-16T10:10:00.672Z,951.3
2018-03-16T10:11:02.087Z,951.2
2018-03-16T10:12:03.578Z,951.3
2018-03-16T10:13:04.937Z,951.3
2018-03-16T10:14:06.353Z,951.2
2018-03-16T10:15:07.754Z,951.2
2018-03-16T10:16:09.183Z,951.2
2018-03-16T10:17:10.603Z,951.2
2018-03-16T10:18:12.007Z,951.2
2018-03-16T10:19:13.380Z,951.2
2018-03-16T10:20:14.889Z,951.2
2018-03-16T10:21:16.297Z,951.3
2018-03-16T10:22:17.723Z,951.3
2018-03-16T10:23:19.217Z,951.2
2018-03-16T10:24:20.652Z,951.2
2018-03-16T10:25:22.054Z,951.2
2018-03-16T10:26:23.467Z,951.2
2018-03-16T10:27:24.896Z,951.3
2018-03-16T10:28:26.330Z,951.2
2018-03-16T10:29:27.734Z,951.2
2018-03-16T10:30:29.195Z,951.3
2018-03-16T10:31:30.596Z,951.3
2018-03-16T10:32:32.007Z,951.3
2018-03-16T10:33:33.420Z,951.3
2018-03-16T10:34:34.827Z,951.3
2018-03-16T10:35:36.228Z,951.3
2018-03-16T10:36:37.629Z,951.3
2018-03-16T10:37:39.038Z,951.3
2018-03-16T10:38:40.433Z,951.3
2018-03-16T10:39:41.847Z,951.2
2018-03-16T10:40:43.318Z,951.3
2018-03-16T10:41:44.724Z,951.2
2018-03-16T10:42:46.170Z,951.2
2018-03-16T10:43:47.536Z,951.2
2018-03-16T10:44:48.978Z,951.2
2018-03-16T10:45:50.403Z,951.1
2018-03-16T10:46:51.807Z,951.2
2018-03-16T10:47:53.211Z,951.2
2018-03-16T10:48:54.669Z,951.2
2018-03-16T10:49:56.014Z,951.2
2018-03-16T10:50:57.434Z,951.2
2018-03-16T10:51:58.895Z,951.2
2018-03-16T10:53:00.303Z,951.2
2018-03-16T10:54:01.704Z,951.2
2018-03-16T10:55:03.147Z,951.2
2018-03-16T10:56:04.574Z,951.2
2018-03-16T10:57:05.978Z,951.3
2018-03-16T10:58:07.388Z,951.2
2018-03-16T10:59:08.786Z,951.2
2018-03-16T11:00:10.187Z,951.3
2018-03-16T11:01:11.594Z,951.1
2018-03-16T11:02:12.995Z,951.1
2018-03-16T11:03:14.456Z,951.1
2018-03-16T11:04:15.893Z,950.9
2018-03-16T11:05:17.307Z,950.8
2018-03-16T11:06:18.719Z,950.7
2018-03-16T11:07:20.244Z,950.8
2018-03-16T11:08:21.753Z,950.9
2018-03-16T11:09:23.281Z,950.9
2018-03-16T11:10:24.627Z,950.9
2018-03-16T11:11:26.045Z,950.9
2018-03-16T11:12:27.460Z,950.8
2018-03-16T11:13:28.864Z,950.9
2018-03-16T11:14:30.260Z,950.8
2018-03-16T11:15:31.668Z,950.8
2018-03-16T11:16:33.064Z,950.8
2018-03-16T11:17:34.468Z,950.8
2018-03-16T11:18:35.867Z,950.9
2018-03-16T11:19:37.260Z,950.9
2018-03-16T11:20:38.649Z,951.0
2018-03-16T11:21:40.130Z,951.0
2018-03-16T11:22:41.538Z,951.0
2018-03-16T11:23:42.996Z,951.0
2018-03-16T11:24:44.398Z,951.0
2018-03-16T11:25:45.793Z,950.9
2018-03-16T11:26:47.192Z,951.1
2018-03-16T11:27:48.604Z,951.1
2018-03-16T11:28:50.026Z,951.1
2018-03-16T11:29:51.450Z,951.1
2018-03-16T11:30:53.665Z,951.0
2018-03-16T11:31:55.075Z,951.0
2018-03-16T11:32:56.512Z,951.0
2018-03-16T11:33:57.965Z,951.0
2018-03-16T11:34:59.375Z,951.0
2018-03-16T11:36:00.768Z,951.0
2018-03-16T11:37:03.135Z,951.0
2018-03-16T11:38:04.538Z,951.0
2018-03-16T11:39:06.207Z,951.0
2018-03-16T11:40:07.840Z,951.1
2018-03-16T11:41:09.231Z,951.2
2018-03-16T11:42:10.620Z,951.2
2018-03-16T11:43:12.030Z,951.2
2018-03-16T11:44:13.479Z,951.2
2018-03-16T11:45:14.921Z,951.4
2018-03-16T11:46:16.331Z,951.5
2018-03-16T11:47:17.748Z,951.3
2018-03-16T11:48:19.205Z,951.2
2018-03-16T11:49:20.622Z,951.3
2018-03-16T11:50:22.043Z,951.4
2018-03-16T11:51:23.482Z,951.5
2018-03-16T11:52:24.900Z,951.6
2018-03-16T11:53:26.322Z,951.4
2018-03-16T11:54:27.720Z,951.4
2018-03-16T11:55:29.126Z,951.5
2018-03-16T11:56:30.552Z,951.6
2018-03-16T11:57:31.953Z,951.7
2018-03-16T11:58:33.349Z,951.8
2018-03-16T11:59:34.888Z,951.7
2018-03-16T12:00:36.255Z,952.0
2018-03-16T12:01:37.680Z,951.7
2018-03-16T12:02:39.177Z,951.6
2018-03-16T12:03:40.576Z,951.5
2018-03-16T12:04:41.988Z,951.3
2018-03-16T12:05:43.406Z,951.2
2018-03-16T12:06:44.823Z,951.1
2018-03-16T12:07:46.220Z,951.4
2018-03-16T12:08:47.623Z,951.2
2018-03-16T12:09:49.050Z,951.2
2018-03-16T12:10:50.461Z,951.2
2018-03-16T12:11:51.880Z,951.2
2018-03-16T12:12:53.294Z,951.3
2018-03-16T12:13:54.709Z,951.3
2018-03-16T12:14:56.126Z,951.2
2018-03-16T12:15:57.543Z,951.2
2018-03-16T12:16:58.959Z,951.2
2018-03-16T12:18:00.382Z,951.1
2018-03-16T12:19:01.795Z,951.1
2018-03-16T12:20:03.302Z,951.1
2018-03-16T12:21:04.714Z,951.1
2018-03-16T12:22:06.116Z,951.2
2018-03-16T12:23:07.536Z,951.2
2018-03-16T12:24:08.961Z,951.3
2018-03-16T12:25:10.387Z,951.3
2018-03-16T12:26:12.048Z,951.2
2018-03-16T12:27:53.005Z,951.1
2018-03-16T12:28:54.433Z,951.1
2018-03-16T12:29:55.901Z,951.0
2018-03-16T12:30:58.431Z,951.0
2018-03-16T12:32:00.004Z,951.1
2018-03-16T12:33:01.580Z,951.1
2018-03-16T12:34:03.021Z,951.0
2018-03-16T12:35:04.493Z,951.1
2018-03-16T12:36:05.978Z,951.1
2018-03-16T12:37:07.490Z,951.1
2018-03-16T12:38:08.897Z,951.1
2018-03-16T12:39:10.329Z,951.1
2018-03-16T12:40:11.896Z,951.1
2018-03-16T12:41:13.355Z,951.1
2018-03-16T12:42:14.794Z,951.0
2018-03-16T12:43:16.306Z,951.2
2018-03-16T12:44:17.803Z,951.3
2018-03-16T12:45:19.242Z,951.3
2018-03-16T12:46:20.677Z,951.3
2018-03-16T12:47:22.085Z,951.2
2018-03-16T12:48:23.484Z,951.2
2018-03-16T12:49:24.952Z,951.1
2018-03-16T12:50:26.348Z,951.2
2018-03-16T12:51:28.280Z,951.1
2018-03-16T12:52:29.612Z,951.2
2018-03-16T12:53:31.057Z,951.2
2018-03-16T12:54:32.542Z,951.1
2018-03-16T12:55:33.983Z,951.1
2018-03-16T12:56:35.421Z,951.2
2018-03-16T12:57:36.844Z,951.2
2018-03-16T12:58:38.380Z,951.2
2018-03-16T12:59:39.787Z,951.3
2018-03-16T13:00:41.298Z,951.2
2018-03-16T13:01:42.711Z,951.3
2018-03-16T13:02:44.295Z,951.3
2018-03-16T13:03:45.668Z,951.3
2018-03-16T13:04:47.169Z,951.3
2018-03-16T13:05:48.448Z,951.3
2018-03-16T13:06:49.867Z,951.2
2018-03-16T13:07:51.353Z,951.2
2018-03-16T13:08:52.754Z,951.1
2018-03-16T13:09:54.164Z,951.3
2018-03-16T13:10:55.578Z,951.2
2018-03-16T13:11:57.004Z,951.2